sensor_id;sensor_type;location;lat;lon;timestamp;temperature;humidity
12911;DHT22;6523;49.758;6.120;2023-09-07T00:01:34;14.30;99.90
12911;DHT22;6523;49.758;6.120;2023-09-07T00:03:59;14.40;99.90
12911;DHT22;6523;49.758;6.120;2023-09-07T00:06:25;14.40;99.90
12911;DHT22;6523;49.758;6.120;2023-09-07T00:08:52;14.30;99.90
12911;DHT22;6523;49.758;6.120;2023-09-07T00:11:17;14.20;99.90
12911;DHT22;6523;49.758;6.120;2023-09-07T00:13:43;14.20;99.90
12911;DHT22;6523;49.758;6.120;2023-09-07T00:16:08;14.10;99.90
12911;DHT22;6523;49.758;6.120;2023-09-07T00:18:34;14.10;99.90
12911;DHT22;6523;49.758;6.120;2023-09-07T00:21:00;14.10;99.90
12911;DHT22;6523;49.758;6.120;2023-09-07T00:23:26;14.00;99.90
12911;DHT22;6523;49.758;6.120;2023-09-07T00:25:51;14.10;99.90
12911;DHT22;6523;49.758;6.120;2023-09-07T00:28:17;14.20;99.90
12911;DHT22;6523;49.758;6.120;2023-09-07T00:30:42;14.00;99.90
12911;DHT22;6523;49.758;6.120;2023-09-07T00:33:08;13.70;99.90
12911;DHT22;6523;49.758;6.120;2023-09-07T00:35:34;13.70;99.90
12911;DHT22;6523;49.758;6.120;2023-09-07T00:38:00;13.80;99.90
12911;DHT22;6523;49.758;6.120;2023-09-07T00:40:25;13.90;99.90
12911;DHT22;6523;49.758;6.120;2023-09-07T00:42:51;13.90;99.90
12911;DHT22;6523;49.758;6.120;2023-09-07T00:45:17;13.70;99.90
12911;DHT22;6523;49.758;6.120;2023-09-07T00:47:43;13.60;99.90
12911;DHT22;6523;49.758;6.120;2023-09-07T00:50:08;13.60;99.90
12911;DHT22;6523;49.758;6.120;2023-09-07T00:52:36;13.70;99.90
12911;DHT22;6523;49.758;6.120;2023-09-07T00:55:06;13.60;99.90
12911;DHT22;6523;49.758;6.120;2023-09-07T00:57:32;13.60;99.90
12911;DHT22;6523;49.758;6.120;2023-09-07T00:59:58;13.60;99.90
12911;DHT22;6523;49.758;6.120;2023-09-07T01:02:23;13.60;99.90
12911;DHT22;6523;49.758;6.120;2023-09-07T01:04:51;13.60;99.90
12911;DHT22;6523;49.758;6.120;2023-09-07T01:07:20;13.50;99.90
12911;DHT22;6523;49.758;6.120;2023-09-07T01:09:50;13.40;99.90
12911;DHT22;6523;49.758;6.120;2023-09-07T01:12:17;13.40;99.90
12911;DHT22;6523;49.758;6.120;2023-09-07T01:14:42;13.40;99.90
12911;DHT22;6523;49.758;6.120;2023-09-07T01:17:09;13.30;99.90
12911;DHT22;6523;49.758;6.120;2023-09-07T01:19:36;13.20;99.90
12911;DHT22;6523;49.758;6.120;2023-09-07T01:22:02;13.20;99.90
12911;DHT22;6523;49.758;6.120;2023-09-07T01:24:29;13.10;99.90
12911;DHT22;6523;49.758;6.120;2023-09-07T01:26:57;13.30;99.90
12911;DHT22;6523;49.758;6.120;2023-09-07T01:29:23;13.30;99.90
12911;DHT22;6523;49.758;6.120;2023-09-07T01:31:48;13.30;99.90
12911;DHT22;6523;49.758;6.120;2023-09-07T01:34:14;13.20;99.90
12911;DHT22;6523;49.758;6.120;2023-09-07T01:36:40;13.10;99.90
12911;DHT22;6523;49.758;6.120;2023-09-07T01:39:07;13.20;99.90
12911;DHT22;6523;49.758;6.120;2023-09-07T01:41:33;13.30;99.90
12911;DHT22;6523;49.758;6.120;2023-09-07T01:43:59;13.20;99.90
12911;DHT22;6523;49.758;6.120;2023-09-07T01:46:25;13.30;99.90
12911;DHT22;6523;49.758;6.120;2023-09-07T01:48:50;13.20;99.90
12911;DHT22;6523;49.758;6.120;2023-09-07T01:51:16;13.20;99.90
12911;DHT22;6523;49.758;6.120;2023-09-07T01:53:41;13.10;99.90
12911;DHT22;6523;49.758;6.120;2023-09-07T01:56:07;13.10;99.90
12911;DHT22;6523;49.758;6.120;2023-09-07T01:58:33;13.00;99.90
12911;DHT22;6523;49.758;6.120;2023-09-07T02:00:59;12.80;99.90
12911;DHT22;6523;49.758;6.120;2023-09-07T02:03:26;12.80;99.90
12911;DHT22;6523;49.758;6.120;2023-09-07T02:05:52;12.80;99.90
12911;DHT22;6523;49.758;6.120;2023-09-07T02:08:18;12.70;99.90
12911;DHT22;6523;49.758;6.120;2023-09-07T02:10:44;12.90;99.90
12911;DHT22;6523;49.758;6.120;2023-09-07T02:13:09;12.90;99.90
12911;DHT22;6523;49.758;6.120;2023-09-07T02:15:38;12.80;99.90
12911;DHT22;6523;49.758;6.120;2023-09-07T02:18:04;12.70;99.90
12911;DHT22;6523;49.758;6.120;2023-09-07T02:20:34;12.70;99.90
12911;DHT22;6523;49.758;6.120;2023-09-07T02:22:59;12.70;99.90
12911;DHT22;6523;49.758;6.120;2023-09-07T02:25:25;12.50;99.90
12911;DHT22;6523;49.758;6.120;2023-09-07T02:27:51;12.40;99.90
12911;DHT22;6523;49.758;6.120;2023-09-07T02:30:16;12.40;99.90
12911;DHT22;6523;49.758;6.120;2023-09-07T02:32:43;12.50;99.90
12911;DHT22;6523;49.758;6.120;2023-09-07T02:35:09;12.60;99.90
12911;DHT22;6523;49.758;6.120;2023-09-07T02:37:36;12.60;99.90
12911;DHT22;6523;49.758;6.120;2023-09-07T02:40:01;12.60;99.90
12911;DHT22;6523;49.758;6.120;2023-09-07T02:42:32;12.50;99.90
12911;DHT22;6523;49.758;6.120;2023-09-07T02:44:57;12.40;99.90
12911;DHT22;6523;49.758;6.120;2023-09-07T02:47:22;12.50;99.90
12911;DHT22;6523;49.758;6.120;2023-09-07T02:49:48;12.50;99.90
12911;DHT22;6523;49.758;6.120;2023-09-07T02:52:14;12.30;99.90
12911;DHT22;6523;49.758;6.120;2023-09-07T02:54:39;12.20;99.90
12911;DHT22;6523;49.758;6.120;2023-09-07T02:57:07;12.20;99.90
12911;DHT22;6523;49.758;6.120;2023-09-07T02:59:32;12.20;99.90
12911;DHT22;6523;49.758;6.120;2023-09-07T03:01:58;12.30;99.90
12911;DHT22;6523;49.758;6.120;2023-09-07T03:04:23;12.20;99.90
12911;DHT22;6523;49.758;6.120;2023-09-07T03:06:49;12.20;99.90
12911;DHT22;6523;49.758;6.120;2023-09-07T03:09:14;12.10;99.90
12911;DHT22;6523;49.758;6.120;2023-09-07T03:11:40;12.20;99.90
12911;DHT22;6523;49.758;6.120;2023-09-07T03:14:06;12.30;99.90
12911;DHT22;6523;49.758;6.120;2023-09-07T03:16:31;12.30;99.90
12911;DHT22;6523;49.758;6.120;2023-09-07T03:18:57;12.30;99.90
12911;DHT22;6523;49.758;6.120;2023-09-07T03:21:22;12.30;99.90
12911;DHT22;6523;49.758;6.120;2023-09-07T03:23:55;12.30;99.90
12911;DHT22;6523;49.758;6.120;2023-09-07T03:26:20;12.20;99.90
12911;DHT22;6523;49.758;6.120;2023-09-07T03:28:46;12.10;99.90
12911;DHT22;6523;49.758;6.120;2023-09-07T03:31:11;12.30;99.90
12911;DHT22;6523;49.758;6.120;2023-09-07T03:33:37;12.20;99.90
12911;DHT22;6523;49.758;6.120;2023-09-07T03:36:02;12.30;99.90
12911;DHT22;6523;49.758;6.120;2023-09-07T03:38:28;12.30;99.90
12911;DHT22;6523;49.758;6.120;2023-09-07T03:40:54;12.20;99.90
12911;DHT22;6523;49.758;6.120;2023-09-07T03:43:20;12.00;99.90
12911;DHT22;6523;49.758;6.120;2023-09-07T03:45:46;12.00;99.90
12911;DHT22;6523;49.758;6.120;2023-09-07T03:48:12;11.90;99.90
12911;DHT22;6523;49.758;6.120;2023-09-07T03:50:37;11.90;99.90
12911;DHT22;6523;49.758;6.120;2023-09-07T03:53:03;12.00;99.90
12911;DHT22;6523;49.758;6.120;2023-09-07T03:55:29;12.10;99.90
12911;DHT22;6523;49.758;6.120;2023-09-07T03:57:54;12.10;99.90
12911;DHT22;6523;49.758;6.120;2023-09-07T04:00:20;12.10;99.90
12911;DHT22;6523;49.758;6.120;2023-09-07T04:02:46;12.10;99.90
12911;DHT22;6523;49.758;6.120;2023-09-07T04:05:12;12.00;99.90
12911;DHT22;6523;49.758;6.120;2023-09-07T04:07:37;12.00;99.90
12911;DHT22;6523;49.758;6.120;2023-09-07T04:10:04;11.90;99.90
12911;DHT22;6523;49.758;6.120;2023-09-07T04:12:30;11.80;99.90
12911;DHT22;6523;49.758;6.120;2023-09-07T04:14:56;11.60;99.90
12911;DHT22;6523;49.758;6.120;2023-09-07T04:17:22;11.70;99.90
12911;DHT22;6523;49.758;6.120;2023-09-07T04:19:47;11.80;99.90
12911;DHT22;6523;49.758;6.120;2023-09-07T04:22:13;11.80;99.90
12911;DHT22;6523;49.758;6.120;2023-09-07T04:24:38;11.70;99.90
12911;DHT22;6523;49.758;6.120;2023-09-07T04:27:04;11.50;99.90
12911;DHT22;6523;49.758;6.120;2023-09-07T04:29:30;11.40;99.90
12911;DHT22;6523;49.758;6.120;2023-09-07T04:31:55;11.60;99.90
12911;DHT22;6523;49.758;6.120;2023-09-07T04:34:22;11.60;99.90
12911;DHT22;6523;49.758;6.120;2023-09-07T04:36:48;11.80;99.90
12911;DHT22;6523;49.758;6.120;2023-09-07T04:39:13;12.00;99.90
12911;DHT22;6523;49.758;6.120;2023-09-07T04:41:40;12.00;99.90
12911;DHT22;6523;49.758;6.120;2023-09-07T04:44:05;11.70;99.90
12911;DHT22;6523;49.758;6.120;2023-09-07T04:46:31;11.60;99.90
12911;DHT22;6523;49.758;6.120;2023-09-07T04:48:57;11.50;99.90
12911;DHT22;6523;49.758;6.120;2023-09-07T04:51:22;11.50;99.90
12911;DHT22;6523;49.758;6.120;2023-09-07T04:53:49;11.50;99.90
12911;DHT22;6523;49.758;6.120;2023-09-07T04:56:15;11.50;99.90
12911;DHT22;6523;49.758;6.120;2023-09-07T04:58:41;11.50;99.90
12911;DHT22;6523;49.758;6.120;2023-09-07T05:01:09;11.40;99.90
12911;DHT22;6523;49.758;6.120;2023-09-07T05:03:35;11.40;99.90
12911;DHT22;6523;49.758;6.120;2023-09-07T05:06:01;11.40;99.90
12911;DHT22;6523;49.758;6.120;2023-09-07T05:08:29;11.30;99.90
12911;DHT22;6523;49.758;6.120;2023-09-07T05:10:59;11.40;99.90
12911;DHT22;6523;49.758;6.120;2023-09-07T05:13:25;11.40;99.90
12911;DHT22;6523;49.758;6.120;2023-09-07T05:15:52;11.40;99.90
12911;DHT22;6523;49.758;6.120;2023-09-07T05:18:18;11.30;99.90
12911;DHT22;6523;49.758;6.120;2023-09-07T05:20:44;11.30;99.90
12911;DHT22;6523;49.758;6.120;2023-09-07T05:23:19;11.30;99.90
12911;DHT22;6523;49.758;6.120;2023-09-07T05:28:12;11.50;99.90
12911;DHT22;6523;49.758;6.120;2023-09-07T05:30:38;11.70;99.90
12911;DHT22;6523;49.758;6.120;2023-09-07T05:33:03;11.70;99.90
12911;DHT22;6523;49.758;6.120;2023-09-07T05:35:29;11.60;99.90
12911;DHT22;6523;49.758;6.120;2023-09-07T05:37:58;11.70;99.90
12911;DHT22;6523;49.758;6.120;2023-09-07T05:40:23;11.60;99.90
12911;DHT22;6523;49.758;6.120;2023-09-07T05:42:49;11.50;99.90
12911;DHT22;6523;49.758;6.120;2023-09-07T05:45:15;11.50;99.90
12911;DHT22;6523;49.758;6.120;2023-09-07T05:47:40;11.40;99.90
12911;DHT22;6523;49.758;6.120;2023-09-07T05:50:06;11.50;99.90
12911;DHT22;6523;49.758;6.120;2023-09-07T05:52:32;11.60;99.90
12911;DHT22;6523;49.758;6.120;2023-09-07T05:54:57;11.70;99.90
12911;DHT22;6523;49.758;6.120;2023-09-07T05:57:23;11.70;99.90
12911;DHT22;6523;49.758;6.120;2023-09-07T05:59:48;11.60;99.90
12911;DHT22;6523;49.758;6.120;2023-09-07T06:02:14;11.70;99.90
12911;DHT22;6523;49.758;6.120;2023-09-07T06:04:40;11.80;99.90
12911;DHT22;6523;49.758;6.120;2023-09-07T06:07:05;11.80;99.90
12911;DHT22;6523;49.758;6.120;2023-09-07T06:09:31;11.80;99.90
12911;DHT22;6523;49.758;6.120;2023-09-07T06:11:56;11.90;99.90
12911;DHT22;6523;49.758;6.120;2023-09-07T06:14:22;11.90;99.90
12911;DHT22;6523;49.758;6.120;2023-09-07T06:16:47;12.00;99.90
12911;DHT22;6523;49.758;6.120;2023-09-07T06:19:13;12.20;99.90
12911;DHT22;6523;49.758;6.120;2023-09-07T06:21:39;12.20;99.90
12911;DHT22;6523;49.758;6.120;2023-09-07T06:24:04;12.40;99.90
12911;DHT22;6523;49.758;6.120;2023-09-07T06:26:31;12.50;99.90
12911;DHT22;6523;49.758;6.120;2023-09-07T06:28:57;12.60;99.90
12911;DHT22;6523;49.758;6.120;2023-09-07T06:31:22;12.70;99.90
12911;DHT22;6523;49.758;6.120;2023-09-07T06:33:48;12.70;99.90
12911;DHT22;6523;49.758;6.120;2023-09-07T06:36:14;12.90;99.90
12911;DHT22;6523;49.758;6.120;2023-09-07T06:38:40;12.90;99.90
12911;DHT22;6523;49.758;6.120;2023-09-07T06:41:05;13.00;99.90
12911;DHT22;6523;49.758;6.120;2023-09-07T06:43:33;13.00;99.90
12911;DHT22;6523;49.758;6.120;2023-09-07T06:46:06;13.20;99.90
12911;DHT22;6523;49.758;6.120;2023-09-07T06:48:33;13.30;99.90
12911;DHT22;6523;49.758;6.120;2023-09-07T06:51:05;13.30;99.90
12911;DHT22;6523;49.758;6.120;2023-09-07T06:53:31;13.40;99.90
12911;DHT22;6523;49.758;6.120;2023-09-07T06:56:01;13.50;99.90
12911;DHT22;6523;49.758;6.120;2023-09-07T06:58:27;13.50;99.90
12911;DHT22;6523;49.758;6.120;2023-09-07T07:00:56;13.60;99.90
12911;DHT22;6523;49.758;6.120;2023-09-07T07:03:21;13.70;99.90
12911;DHT22;6523;49.758;6.120;2023-09-07T07:05:47;13.80;99.90
12911;DHT22;6523;49.758;6.120;2023-09-07T07:08:12;13.90;99.90
12911;DHT22;6523;49.758;6.120;2023-09-07T07:10:38;14.10;99.90
12911;DHT22;6523;49.758;6.120;2023-09-07T07:13:04;14.20;99.90
12911;DHT22;6523;49.758;6.120;2023-09-07T07:15:29;14.30;99.90
12911;DHT22;6523;49.758;6.120;2023-09-07T07:17:55;14.40;99.90
12911;DHT22;6523;49.758;6.120;2023-09-07T07:20:20;14.40;99.90
12911;DHT22;6523;49.758;6.120;2023-09-07T07:22:46;14.50;99.90
12911;DHT22;6523;49.758;6.120;2023-09-07T07:25:11;14.50;99.90
12911;DHT22;6523;49.758;6.120;2023-09-07T07:27:37;14.70;99.90
12911;DHT22;6523;49.758;6.120;2023-09-07T07:30:04;14.80;99.90
12911;DHT22;6523;49.758;6.120;2023-09-07T07:32:30;14.90;99.90
12911;DHT22;6523;49.758;6.120;2023-09-07T07:34:55;15.00;99.90
12911;DHT22;6523;49.758;6.120;2023-09-07T07:37:21;15.10;99.90
12911;DHT22;6523;49.758;6.120;2023-09-07T07:39:46;15.10;99.90
12911;DHT22;6523;49.758;6.120;2023-09-07T07:42:12;15.30;99.90
12911;DHT22;6523;49.758;6.120;2023-09-07T07:44:37;15.50;99.90
12911;DHT22;6523;49.758;6.120;2023-09-07T07:47:03;16.00;99.90
12911;DHT22;6523;49.758;6.120;2023-09-07T07:49:28;16.20;99.90
12911;DHT22;6523;49.758;6.120;2023-09-07T07:51:54;16.50;99.90
12911;DHT22;6523;49.758;6.120;2023-09-07T07:54:21;16.70;99.90
12911;DHT22;6523;49.758;6.120;2023-09-07T07:56:48;16.90;99.90
12911;DHT22;6523;49.758;6.120;2023-09-07T07:59:13;17.20;99.90
12911;DHT22;6523;49.758;6.120;2023-09-07T08:01:39;17.30;99.90
12911;DHT22;6523;49.758;6.120;2023-09-07T08:04:05;17.40;99.90
12911;DHT22;6523;49.758;6.120;2023-09-07T08:06:32;17.70;99.90
12911;DHT22;6523;49.758;6.120;2023-09-07T08:08:57;17.60;99.90
12911;DHT22;6523;49.758;6.120;2023-09-07T08:11:23;17.90;99.90
12911;DHT22;6523;49.758;6.120;2023-09-07T08:13:49;18.30;99.90
12911;DHT22;6523;49.758;6.120;2023-09-07T08:16:15;18.50;99.90
12911;DHT22;6523;49.758;6.120;2023-09-07T08:18:41;18.70;99.90
12911;DHT22;6523;49.758;6.120;2023-09-07T08:21:06;18.70;99.90
12911;DHT22;6523;49.758;6.120;2023-09-07T08:23:32;19.00;99.90
12911;DHT22;6523;49.758;6.120;2023-09-07T08:25:57;19.10;99.90
12911;DHT22;6523;49.758;6.120;2023-09-07T08:28:24;19.40;99.90
12911;DHT22;6523;49.758;6.120;2023-09-07T08:30:51;19.60;99.90
12911;DHT22;6523;49.758;6.120;2023-09-07T08:33:19;19.90;99.90
12911;DHT22;6523;49.758;6.120;2023-09-07T08:35:45;20.00;99.90
12911;DHT22;6523;49.758;6.120;2023-09-07T08:38:11;20.40;99.90
12911;DHT22;6523;49.758;6.120;2023-09-07T08:40:38;20.30;99.90
12911;DHT22;6523;49.758;6.120;2023-09-07T08:43:09;20.50;99.90
12911;DHT22;6523;49.758;6.120;2023-09-07T08:45:42;20.70;99.90
12911;DHT22;6523;49.758;6.120;2023-09-07T08:48:10;20.70;99.90
12911;DHT22;6523;49.758;6.120;2023-09-07T08:50:37;21.00;99.90
12911;DHT22;6523;49.758;6.120;2023-09-07T08:53:03;21.30;99.90
12911;DHT22;6523;49.758;6.120;2023-09-07T08:55:29;21.60;99.90
12911;DHT22;6523;49.758;6.120;2023-09-07T08:57:56;21.40;99.90
12911;DHT22;6523;49.758;6.120;2023-09-07T09:00:22;21.20;99.90
12911;DHT22;6523;49.758;6.120;2023-09-07T09:02:48;21.70;99.90
12911;DHT22;6523;49.758;6.120;2023-09-07T09:05:15;21.80;99.90
12911;DHT22;6523;49.758;6.120;2023-09-07T09:07:41;21.80;99.90
12911;DHT22;6523;49.758;6.120;2023-09-07T09:10:07;22.20;99.90
12911;DHT22;6523;49.758;6.120;2023-09-07T09:12:34;22.40;99.90
12911;DHT22;6523;49.758;6.120;2023-09-07T09:15:00;22.50;99.90
12911;DHT22;6523;49.758;6.120;2023-09-07T09:17:29;22.80;99.90
12911;DHT22;6523;49.758;6.120;2023-09-07T09:19:55;23.20;99.90
12911;DHT22;6523;49.758;6.120;2023-09-07T09:22:21;23.40;99.90
12911;DHT22;6523;49.758;6.120;2023-09-07T09:24:48;23.50;99.90
12911;DHT22;6523;49.758;6.120;2023-09-07T09:27:14;23.60;99.90
12911;DHT22;6523;49.758;6.120;2023-09-07T09:29:40;23.90;99.90
12911;DHT22;6523;49.758;6.120;2023-09-07T09:32:06;23.90;99.90
12911;DHT22;6523;49.758;6.120;2023-09-07T09:34:36;24.30;99.90
12911;DHT22;6523;49.758;6.120;2023-09-07T09:37:03;24.50;99.90
12911;DHT22;6523;49.758;6.120;2023-09-07T09:39:29;24.70;99.90
12911;DHT22;6523;49.758;6.120;2023-09-07T09:41:55;24.80;99.90
12911;DHT22;6523;49.758;6.120;2023-09-07T09:44:22;25.00;99.90
12911;DHT22;6523;49.758;6.120;2023-09-07T09:46:52;25.30;99.90
12911;DHT22;6523;49.758;6.120;2023-09-07T09:49:20;25.40;99.90
12911;DHT22;6523;49.758;6.120;2023-09-07T09:51:48;25.50;99.90
12911;DHT22;6523;49.758;6.120;2023-09-07T09:54:16;25.60;99.90
12911;DHT22;6523;49.758;6.120;2023-09-07T09:56:42;25.90;99.90
12911;DHT22;6523;49.758;6.120;2023-09-07T09:59:07;25.90;99.90
12911;DHT22;6523;49.758;6.120;2023-09-07T10:01:52;25.90;99.90
12911;DHT22;6523;49.758;6.120;2023-09-07T10:04:19;26.10;99.90
12911;DHT22;6523;49.758;6.120;2023-09-07T10:06:58;26.50;99.90
12911;DHT22;6523;49.758;6.120;2023-09-07T10:09:29;26.50;99.90
12911;DHT22;6523;49.758;6.120;2023-09-07T10:11:58;26.80;99.90
12911;DHT22;6523;49.758;6.120;2023-09-07T10:14:25;26.80;99.90
12911;DHT22;6523;49.758;6.120;2023-09-07T10:16:54;27.20;99.90
12911;DHT22;6523;49.758;6.120;2023-09-07T10:19:25;27.20;99.90
12911;DHT22;6523;49.758;6.120;2023-09-07T10:21:54;27.30;99.90
12911;DHT22;6523;49.758;6.120;2023-09-07T10:24:33;27.50;99.90
12911;DHT22;6523;49.758;6.120;2023-09-07T10:27:03;27.60;99.90
12911;DHT22;6523;49.758;6.120;2023-09-07T10:29:44;27.80;99.90
12911;DHT22;6523;49.758;6.120;2023-09-07T10:32:09;28.10;99.90
12911;DHT22;6523;49.758;6.120;2023-09-07T10:34:40;27.80;99.90
12911;DHT22;6523;49.758;6.120;2023-09-07T10:37:13;27.90;99.90
12911;DHT22;6523;49.758;6.120;2023-09-07T10:39:40;27.90;99.90
12911;DHT22;6523;49.758;6.120;2023-09-07T10:42:08;28.20;99.90
12911;DHT22;6523;49.758;6.120;2023-09-07T10:44:34;28.50;99.90
12911;DHT22;6523;49.758;6.120;2023-09-07T10:47:00;28.40;99.90
12911;DHT22;6523;49.758;6.120;2023-09-07T10:49:25;28.40;99.90
12911;DHT22;6523;49.758;6.120;2023-09-07T10:51:51;28.30;99.90
12911;DHT22;6523;49.758;6.120;2023-09-07T10:54:17;28.70;99.90
12911;DHT22;6523;49.758;6.120;2023-09-07T10:56:44;28.90;99.90
12911;DHT22;6523;49.758;6.120;2023-09-07T10:59:11;29.00;99.90
12911;DHT22;6523;49.758;6.120;2023-09-07T11:01:37;28.90;99.90
12911;DHT22;6523;49.758;6.120;2023-09-07T11:04:02;28.90;99.90
12911;DHT22;6523;49.758;6.120;2023-09-07T11:06:29;28.90;99.90
12911;DHT22;6523;49.758;6.120;2023-09-07T11:08:55;28.90;99.90
12911;DHT22;6523;49.758;6.120;2023-09-07T11:11:20;28.70;99.90
12911;DHT22;6523;49.758;6.120;2023-09-07T11:13:48;29.30;99.90
12911;DHT22;6523;49.758;6.120;2023-09-07T11:16:13;29.20;99.90
12911;DHT22;6523;49.758;6.120;2023-09-07T11:18:39;29.20;99.90
12911;DHT22;6523;49.758;6.120;2023-09-07T11:21:06;28.70;99.90
12911;DHT22;6523;49.758;6.120;2023-09-07T11:23:33;29.20;99.90
12911;DHT22;6523;49.758;6.120;2023-09-07T11:26:05;29.00;99.90
12911;DHT22;6523;49.758;6.120;2023-09-07T11:28:31;29.50;99.90
12911;DHT22;6523;49.758;6.120;2023-09-07T11:30:58;29.10;99.90
12911;DHT22;6523;49.758;6.120;2023-09-07T11:33:23;29.00;99.90
12911;DHT22;6523;49.758;6.120;2023-09-07T11:35:50;29.70;99.90
12911;DHT22;6523;49.758;6.120;2023-09-07T11:38:17;29.70;99.90
12911;DHT22;6523;49.758;6.120;2023-09-07T11:40:44;30.50;99.90
12911;DHT22;6523;49.758;6.120;2023-09-07T11:43:14;30.60;99.90
12911;DHT22;6523;49.758;6.120;2023-09-07T11:45:41;30.70;99.90
12911;DHT22;6523;49.758;6.120;2023-09-07T11:48:07;31.30;99.90
12911;DHT22;6523;49.758;6.120;2023-09-07T11:50:36;30.70;99.90
12911;DHT22;6523;49.758;6.120;2023-09-07T11:53:02;30.00;99.90
12911;DHT22;6523;49.758;6.120;2023-09-07T11:55:28;30.40;99.90
12911;DHT22;6523;49.758;6.120;2023-09-07T11:57:53;30.90;99.90
12911;DHT22;6523;49.758;6.120;2023-09-07T12:00:19;30.70;99.90
12911;DHT22;6523;49.758;6.120;2023-09-07T12:02:45;30.30;99.90
12911;DHT22;6523;49.758;6.120;2023-09-07T12:05:10;30.80;99.90
12911;DHT22;6523;49.758;6.120;2023-09-07T12:07:40;31.40;99.90
12911;DHT22;6523;49.758;6.120;2023-09-07T12:10:06;31.50;99.90
12911;DHT22;6523;49.758;6.120;2023-09-07T12:12:36;31.50;99.90
12911;DHT22;6523;49.758;6.120;2023-09-07T12:15:02;31.40;99.90
12911;DHT22;6523;49.758;6.120;2023-09-07T12:17:29;31.60;99.90
12911;DHT22;6523;49.758;6.120;2023-09-07T12:19:55;31.80;99.90
12911;DHT22;6523;49.758;6.120;2023-09-07T12:22:20;31.90;99.90
12911;DHT22;6523;49.758;6.120;2023-09-07T12:24:46;31.70;96.30
12911;DHT22;6523;49.758;6.120;2023-09-07T12:27:11;31.90;99.60
12911;DHT22;6523;49.758;6.120;2023-09-07T12:29:37;31.70;85.00
12911;DHT22;6523;49.758;6.120;2023-09-07T12:32:02;30.70;66.50
12911;DHT22;6523;49.758;6.120;2023-09-07T12:34:28;30.20;65.20
12911;DHT22;6523;49.758;6.120;2023-09-07T12:36:53;30.80;90.20
12911;DHT22;6523;49.758;6.120;2023-09-07T12:39:19;31.00;67.50
12911;DHT22;6523;49.758;6.120;2023-09-07T12:41:45;30.60;71.50
12911;DHT22;6523;49.758;6.120;2023-09-07T12:44:10;31.60;89.60
12911;DHT22;6523;49.758;6.120;2023-09-07T12:46:36;31.80;73.80
12911;DHT22;6523;49.758;6.120;2023-09-07T12:49:02;31.70;64.30
12911;DHT22;6523;49.758;6.120;2023-09-07T12:51:28;32.00;76.90
12911;DHT22;6523;49.758;6.120;2023-09-07T12:53:53;32.10;58.70
12911;DHT22;6523;49.758;6.120;2023-09-07T12:56:19;31.90;55.80
12911;DHT22;6523;49.758;6.120;2023-09-07T12:58:45;31.90;60.60
12911;DHT22;6523;49.758;6.120;2023-09-07T13:01:10;32.40;59.90
12911;DHT22;6523;49.758;6.120;2023-09-07T13:03:39;32.50;44.50
12911;DHT22;6523;49.758;6.120;2023-09-07T13:06:04;32.70;60.80
12911;DHT22;6523;49.758;6.120;2023-09-07T13:08:30;32.50;52.90
12911;DHT22;6523;49.758;6.120;2023-09-07T13:10:56;33.00;48.80
12911;DHT22;6523;49.758;6.120;2023-09-07T13:13:23;32.90;29.80
12911;DHT22;6523;49.758;6.120;2023-09-07T13:15:51;32.60;40.70
12911;DHT22;6523;49.758;6.120;2023-09-07T13:18:16;33.00;50.30
12911;DHT22;6523;49.758;6.120;2023-09-07T13:20:42;33.00;31.30
12911;DHT22;6523;49.758;6.120;2023-09-07T13:23:08;32.50;39.40
12911;DHT22;6523;49.758;6.120;2023-09-07T13:25:33;32.60;41.10
12911;DHT22;6523;49.758;6.120;2023-09-07T13:27:59;32.80;50.70
12911;DHT22;6523;49.758;6.120;2023-09-07T13:30:25;33.00;36.00
12911;DHT22;6523;49.758;6.120;2023-09-07T13:32:50;33.00;42.20
12911;DHT22;6523;49.758;6.120;2023-09-07T13:35:16;33.10;35.00
12911;DHT22;6523;49.758;6.120;2023-09-07T13:37:42;33.10;36.00
12911;DHT22;6523;49.758;6.120;2023-09-07T13:40:08;33.40;31.90
12911;DHT22;6523;49.758;6.120;2023-09-07T13:42:34;32.80;34.10
12911;DHT22;6523;49.758;6.120;2023-09-07T13:45:00;32.90;23.70
12911;DHT22;6523;49.758;6.120;2023-09-07T13:47:25;32.90;28.00
12911;DHT22;6523;49.758;6.120;2023-09-07T13:49:51;33.10;26.60
12911;DHT22;6523;49.758;6.120;2023-09-07T13:52:17;32.90;20.70
12911;DHT22;6523;49.758;6.120;2023-09-07T13:54:42;32.70;28.30
12911;DHT22;6523;49.758;6.120;2023-09-07T13:57:08;33.00;29.40
12911;DHT22;6523;49.758;6.120;2023-09-07T13:59:34;33.40;33.60
12911;DHT22;6523;49.758;6.120;2023-09-07T14:02:00;34.10;16.70
12911;DHT22;6523;49.758;6.120;2023-09-07T14:04:26;33.50;22.10
12911;DHT22;6523;49.758;6.120;2023-09-07T14:06:52;33.60;28.10
12911;DHT22;6523;49.758;6.120;2023-09-07T14:09:17;33.50;33.00
12911;DHT22;6523;49.758;6.120;2023-09-07T14:11:44;33.80;30.00
12911;DHT22;6523;49.758;6.120;2023-09-07T14:14:10;32.50;12.40
12911;DHT22;6523;49.758;6.120;2023-09-07T14:16:35;33.40;30.90
12911;DHT22;6523;49.758;6.120;2023-09-07T14:19:01;32.70;14.50
12911;DHT22;6523;49.758;6.120;2023-09-07T14:21:27;32.00;17.30
12911;DHT22;6523;49.758;6.120;2023-09-07T14:23:52;32.00;10.30
12911;DHT22;6523;49.758;6.120;2023-09-07T14:26:18;33.10;25.90
12911;DHT22;6523;49.758;6.120;2023-09-07T14:28:43;32.50;9.50
12911;DHT22;6523;49.758;6.120;2023-09-07T14:31:09;33.40;33.60
12911;DHT22;6523;49.758;6.120;2023-09-07T14:33:35;33.70;28.30
12911;DHT22;6523;49.758;6.120;2023-09-07T14:36:07;33.70;9.90
12911;DHT22;6523;49.758;6.120;2023-09-07T14:38:33;33.90;29.70
12911;DHT22;6523;49.758;6.120;2023-09-07T14:41:05;34.30;22.10
12911;DHT22;6523;49.758;6.120;2023-09-07T14:43:30;34.10;24.40
12911;DHT22;6523;49.758;6.120;2023-09-07T14:45:56;34.10;18.50
12911;DHT22;6523;49.758;6.120;2023-09-07T14:48:22;34.10;32.60
12911;DHT22;6523;49.758;6.120;2023-09-07T14:50:48;33.90;29.00
12911;DHT22;6523;49.758;6.120;2023-09-07T14:53:13;33.70;32.40
12911;DHT22;6523;49.758;6.120;2023-09-07T14:55:39;33.50;21.30
12911;DHT22;6523;49.758;6.120;2023-09-07T14:58:04;33.50;37.80
12911;DHT22;6523;49.758;6.120;2023-09-07T15:00:30;34.00;31.20
12911;DHT22;6523;49.758;6.120;2023-09-07T15:02:58;33.40;13.20
12911;DHT22;6523;49.758;6.120;2023-09-07T15:05:24;32.50;18.90
12911;DHT22;6523;49.758;6.120;2023-09-07T15:07:49;33.30;29.80
12911;DHT22;6523;49.758;6.120;2023-09-07T15:10:15;33.60;30.50
12911;DHT22;6523;49.758;6.120;2023-09-07T15:12:40;33.90;39.50
12911;DHT22;6523;49.758;6.120;2023-09-07T15:15:06;33.70;21.80
12911;DHT22;6523;49.758;6.120;2023-09-07T15:17:36;34.00;25.80
12911;DHT22;6523;49.758;6.120;2023-09-07T15:20:02;33.40;4.80
12911;DHT22;6523;49.758;6.120;2023-09-07T15:22:29;33.90;23.10
12911;DHT22;6523;49.758;6.120;2023-09-07T15:24:54;34.50;21.10
12911;DHT22;6523;49.758;6.120;2023-09-07T15:27:21;34.00;10.00
12911;DHT22;6523;49.758;6.120;2023-09-07T15:29:46;33.40;6.30
12911;DHT22;6523;49.758;6.120;2023-09-07T15:32:12;33.90;29.50
12911;DHT22;6523;49.758;6.120;2023-09-07T15:34:37;34.50;26.60
12911;DHT22;6523;49.758;6.120;2023-09-07T15:37:03;34.70;23.20
12911;DHT22;6523;49.758;6.120;2023-09-07T15:39:29;34.10;19.70
12911;DHT22;6523;49.758;6.120;2023-09-07T15:41:55;34.00;29.20
12911;DHT22;6523;49.758;6.120;2023-09-07T15:44:21;34.20;31.80